Time;durP1;ratioP1;P1;durP2;ratioP2;P2;SDS_P1;SDS_P2;PMS_P1;PMS_P2;Temp;Humidity;BMP_temperature;BMP_pressure;BME280_temperature;BME280_humidity;BME280_pressure;Samples;Min_cycle;Max_cycle;Signal;HPM_P1;HPM_P2
2022/06/23 00:01:20;;;;;;;12.45;5.88;;;;;;;;;;5084606;28;20425;-67
2022/06/23 00:04:10;;;;;;;15.02;6.57;;;;;;;;;;5093193;28;20050;-68
2022/06/23 00:06:59;;;;;;;14.07;5.72;;;;;;;;;;5088982;28;20040;-65
2022/06/23 00:09:44;;;;;;;16.10;7.18;;;;;;;;;;5093188;28;20020;-61
2022/06/23 00:12:35;;;;;;;12.05;5.80;;;;;;;;;;5090521;28;20035;-60
2022/06/23 00:15:28;;;;;;;11.23;4.97;;;;;;;;;;5075955;28;20032;-60
2022/06/23 00:18:19;;;;;;;16.48;6.43;;;;;;;;;;5095169;28;20024;-61
2022/06/23 00:21:09;;;;;;;13.18;6.07;;;;;;;;;;5071832;28;20039;-61
2022/06/23 00:23:59;;;;;;;12.43;5.35;;;;;;;;;;5091716;28;20073;-66
2022/06/23 00:26:44;;;;;;;12.70;5.43;;;;;;;;;;5092252;28;20031;-70
2022/06/23 00:29:31;;;;;;;17.42;5.15;;;;;;;;;;5087802;28;20391;-68
2022/06/23 00:32:17;;;;;;;13.55;6.15;;;;;;;;;;5075890;28;20459;-70
2022/06/23 00:35:04;;;;;;;13.77;4.70;;;;;;;;;;5093934;28;20028;-70
2022/06/23 00:37:51;;;;;;;12.38;4.97;;;;;;;;;;5091514;28;20020;-70
2022/06/23 00:40:41;;;;;;;10.60;4.88;;;;;;;;;;5093707;28;20024;-61
2022/06/23 00:43:27;;;;;;;11.13;5.18;;;;;;;;;;5091354;28;20081;-66
2022/06/23 00:46:23;;;;;;;11.95;4.45;;;;;;;;;;5084041;28;20032;-66
2022/06/23 00:49:14;;;;;;;12.75;4.43;;;;;;;;;;5092184;28;20039;-66
2022/06/23 00:52:09;;;;;;;14.40;5.35;;;;;;;;;;5079750;28;20036;-64
2022/06/23 00:54:57;;;;;;;14.43;5.43;;;;;;;;;;5092279;28;20024;-66
2022/06/23 00:57:48;;;;;;;10.25;4.70;;;;;;;;;;5091434;28;20020;-64
2022/06/23 01:00:38;;;;;;;13.82;4.88;;;;;;;;;;5088628;28;20020;-65
2022/06/23 01:03:32;;;;;;;17.27;5.68;;;;;;;;;;5075052;28;20059;-66
2022/06/23 01:06:27;;;;;;;10.52;5.07;;;;;;;;;;5091182;28;20035;-66
2022/06/23 01:09:17;;;;;;;12.07;4.85;;;;;;;;;;5072777;28;20134;-66
2022/06/23 01:12:16;;;;;;;12.68;4.97;;;;;;;;;;5081128;28;20470;-65
2022/06/23 01:15:05;;;;;;;13.25;4.72;;;;;;;;;;5090947;28;20070;-65
2022/06/23 01:17:53;;;;;;;12.38;5.10;;;;;;;;;;5091711;28;20051;-67
2022/06/23 01:20:59;;;;;;;15.77;5.00;;;;;;;;;;5092244;28;20036;-69
2022/06/23 01:24:00;;;;;;;11.00;4.65;;;;;;;;;;5089406;28;20024;-69
2022/06/23 01:27:06;;;;;;;10.35;5.63;;;;;;;;;;5088775;28;20066;-70
2022/06/23 01:29:51;;;;;;;10.10;4.47;;;;;;;;;;5092060;28;20382;-70
2022/06/23 01:32:55;;;;;;;16.38;5.55;;;;;;;;;;5087892;28;20144;-69
2022/06/23 01:35:44;;;;;;;11.98;4.85;;;;;;;;;;5083223;28;20538;-66
2022/06/23 01:38:49;;;;;;;12.07;4.65;;;;;;;;;;5090941;28;20034;-65
2022/06/23 01:41:49;;;;;;;12.57;5.30;;;;;;;;;;5093419;28;20032;-67
2022/06/23 01:44:54;;;;;;;12.85;5.57;;;;;;;;;;5090192;28;20481;-68
2022/06/23 01:47:45;;;;;;;12.55;4.97;;;;;;;;;;5075048;28;20077;-67
2022/06/23 01:50:39;;;;;;;11.80;4.35;;;;;;;;;;5090510;28;20028;-65
2022/06/23 01:53:26;;;;;;;14.43;4.93;;;;;;;;;;5090977;28;20024;-66
2022/06/23 01:56:17;;;;;;;13.82;4.50;;;;;;;;;;5090538;28;20104;-64
2022/06/23 01:59:10;;;;;;;11.85;4.60;;;;;;;;;;5077029;28;20036;-67
2022/06/23 02:02:11;;;;;;;14.18;4.80;;;;;;;;;;5088121;28;20020;-68
2022/06/23 02:04:56;;;;;;;11.02;4.40;;;;;;;;;;5077717;28;20055;-68
2022/06/23 02:07:45;;;;;;;17.23;5.65;;;;;;;;;;5083882;28;20538;-66
2022/06/23 02:10:43;;;;;;;16.75;5.10;;;;;;;;;;5089236;28;20044;-68
2022/06/23 02:13:47;;;;;;;13.50;5.35;;;;;;;;;;5085583;28;20024;-71
2022/06/23 02:16:51;;;;;;;10.05;4.55;;;;;;;;;;5091045;28;20174;-65
2022/06/23 02:19:37;;;;;;;11.55;4.35;;;;;;;;;;5089239;28;20032;-68
2022/06/23 02:22:34;;;;;;;13.70;4.85;;;;;;;;;;5085924;28;20035;-67
2022/06/23 02:25:23;;;;;;;14.05;5.60;;;;;;;;;;5088505;28;20109;-66
2022/06/23 02:28:11;;;;;;;14.02;5.25;;;;;;;;;;5070006;28;20208;-66
2022/06/23 02:31:15;;;;;;;12.80;5.30;;;;;;;;;;5087360;28;20043;-62
2022/06/23 02:34:19;;;;;;;12.55;4.35;;;;;;;;;;5076273;28;20032;-66
2022/06/23 02:37:25;;;;;;;13.50;4.72;;;;;;;;;;5065941;28;20035;-68
2022/06/23 02:40:15;;;;;;;11.02;4.20;;;;;;;;;;5089848;28;20518;-69
2022/06/23 02:43:13;;;;;;;18.42;5.28;;;;;;;;;;5077366;28;20031;-69
2022/06/23 02:46:20;;;;;;;13.18;5.18;;;;;;;;;;5070403;28;20107;-69
2022/06/23 02:49:21;;;;;;;13.98;4.63;;;;;;;;;;5083439;28;20375;-67
2022/06/23 02:52:10;;;;;;;9.80;4.53;;;;;;;;;;5075847;28;20028;-67
2022/06/23 02:55:03;;;;;;;11.33;5.23;;;;;;;;;;5074647;28;20077;-63
2022/06/23 02:57:53;;;;;;;14.75;5.20;;;;;;;;;;5087029;28;20024;-62
2022/06/23 03:00:38;;;;;;;;;;;;;;;;;;5088292;28;20115;-62
2022/06/23 03:03:34;;;;;;;13.88;5.28;;;;;;;;;;5090568;28;20003;-61
2022/06/23 03:06:39;;;;;;;15.95;5.80;;;;;;;;;;5092401;28;20032;-62
2022/06/23 03:09:35;;;;;;;15.07;5.20;;;;;;;;;;5076518;28;20028;-67
2022/06/23 03:12:27;;;;;;;11.38;4.70;;;;;;;;;;5077964;28;20029;-64
2022/06/23 03:15:16;;;;;;;10.55;4.68;;;;;;;;;;5078063;28;20031;-63
2022/06/23 03:18:09;;;;;;;16.43;4.43;;;;;;;;;;5089177;28;20024;-64
2022/06/23 03:20:57;;;;;;;9.10;4.35;;;;;;;;;;5081599;28;20847;-64
2022/06/23 03:23:45;;;;;;;9.80;4.38;;;;;;;;;;5090080;28;20038;-64
2022/06/23 03:26:49;;;;;;;13.65;5.35;;;;;;;;;;5073042;28;20019;-62
2022/06/23 03:29:34;;;;;;;13.85;5.40;;;;;;;;;;5081414;28;20024;-67
2022/06/23 03:32:27;;;;;;;11.10;4.28;;;;;;;;;;5089405;28;20486;-66
2022/06/23 03:35:22;;;;;;;12.38;4.82;;;;;;;;;;5087347;28;20043;-66
2022/06/23 03:38:15;;;;;;;11.20;4.80;;;;;;;;;;5086254;28;20043;-67
2022/06/23 03:44:09;;;;;;;17.15;5.78;;;;;;;;;;5088092;28;20032;-67
2022/06/23 03:47:01;;;;;;;13.05;4.30;;;;;;;;;;5088781;28;20058;-67
2022/06/23 03:49:46;;;;;;;14.40;5.72;;;;;;;;;;5087356;28;20500;-62
2022/06/23 03:52:36;;;;;;;8.73;4.00;;;;;;;;;;5081862;28;20092;-62
2022/06/23 03:55:26;;;;;;;12.35;4.90;;;;;;;;;;5086508;28;20044;-62
2022/06/23 03:58:27;;;;;;;15.18;4.38;;;;;;;;;;5088278;28;20050;-63
2022/06/23 04:01:14;;;;;;;10.93;5.43;;;;;;;;;;5079803;28;20036;-62
2022/06/23 04:04:02;;;;;;;10.77;5.05;;;;;;;;;;5087023;28;20359;-67
2022/06/23 04:06:49;;;;;;;13.82;4.30;;;;;;;;;;5090338;28;20054;-66
2022/06/23 04:09:36;;;;;;;13.05;5.07;;;;;;;;;;5091583;28;20445;-67
2022/06/23 04:12:22;;;;;;;12.40;4.97;;;;;;;;;;5087393;28;20032;-68
2022/06/23 04:15:14;;;;;;;9.57;4.38;;;;;;;;;;5088189;28;20393;-67
2022/06/23 04:18:04;;;;;;;15.05;5.82;;;;;;;;;;5075603;28;20031;-66
2022/06/23 04:20:53;;;;;;;14.15;5.78;;;;;;;;;;5081461;28;20028;-67
2022/06/23 04:23:40;;;;;;;11.48;5.22;;;;;;;;;;5089257;28;20024;-68
2022/06/23 04:26:37;;;;;;;13.73;5.10;;;;;;;;;;5090737;28;20398;-63
2022/06/23 04:29:29;;;;;;;12.05;4.93;;;;;;;;;;5090578;28;20489;-63
2022/06/23 04:32:16;;;;;;;12.00;5.00;;;;;;;;;;5073111;28;20055;-63
2022/06/23 04:35:05;;;;;;;16.67;5.38;;;;;;;;;;5089242;28;20032;-62
2022/06/23 04:37:56;;;;;;;10.38;4.85;;;;;;;;;;5087683;28;20031;-61
2022/06/23 04:40:42;;;;;;;11.90;4.78;;;;;;;;;;5090577;28;20142;-68
2022/06/23 04:43:30;;;;;;;13.65;4.40;;;;;;;;;;5084659;28;20021;-68
2022/06/23 04:46:16;;;;;;;14.80;5.00;;;;;;;;;;5075412;28;20035;-67
2022/06/23 04:49:06;;;;;;;16.50;5.47;;;;;;;;;;5091515;28;20031;-69
2022/06/23 04:52:04;;;;;;;9.80;4.97;;;;;;;;;;5091930;28;20031;-68
2022/06/23 04:55:11;;;;;;;13.95;5.32;;;;;;;;;;5088174;28;20112;-69
2022/06/23 04:58:01;;;;;;;14.98;4.97;;;;;;;;;;5088170;28;20102;-67
2022/06/23 05:00:48;;;;;;;15.35;5.20;;;;;;;;;;5077488;28;20035;-63
2022/06/23 05:03:35;;;;;;;13.55;5.85;;;;;;;;;;5076830;28;20062;-67
2022/06/23 05:06:26;;;;;;;13.68;5.90;;;;;;;;;;5079627;28;20020;-68
2022/06/23 05:09:12;;;;;;;10.45;5.07;;;;;;;;;;5088359;28;20085;-66
2022/06/23 05:12:02;;;;;;;13.48;5.13;;;;;;;;;;5087368;28;20351;-66
2022/06/23 05:14:56;;;;;;;14.63;5.63;;;;;;;;;;5088403;28;20073;-67
2022/06/23 05:17:48;;;;;;;14.73;5.57;;;;;;;;;;5085624;28;20024;-61
2022/06/23 05:20:40;;;;;;;12.05;4.70;;;;;;;;;;5090888;28;20055;-60
2022/06/23 05:23:27;;;;;;;14.40;5.03;;;;;;;;;;5088786;28;20425;-63
2022/06/23 05:26:30;;;;;;;13.10;4.22;;;;;;;;;;5087112;28;20028;-63
2022/06/23 05:29:23;;;;;;;14.23;5.53;;;;;;;;;;5088822;28;20561;-63
2022/06/23 05:32:15;;;;;;;10.85;5.18;;;;;;;;;;5091504;28;20394;-63
2022/06/23 05:35:06;;;;;;;13.52;5.63;;;;;;;;;;5093646;28;20024;-72
2022/06/23 05:37:55;;;;;;;15.32;5.13;;;;;;;;;;5089422;28;20028;-63
2022/06/23 05:40:48;;;;;;;11.07;4.95;;;;;;;;;;5093087;28;20383;-66
2022/06/23 05:43:39;;;;;;;12.88;5.38;;;;;;;;;;5093006;28;20061;-64
2022/06/23 05:46:27;;;;;;;15.60;6.10;;;;;;;;;;5092851;28;20020;-65
2022/06/23 05:49:18;;;;;;;13.48;5.28;;;;;;;;;;5091380;28;20031;-65
2022/06/23 05:52:04;;;;;;;14.10;5.45;;;;;;;;;;5091829;28;20062;-65
2022/06/23 05:54:59;;;;;;;15.38;4.82;;;;;;;;;;5091848;28;20470;-67
2022/06/23 05:57:49;;;;;;;12.90;5.43;;;;;;;;;;5091513;28;20103;-63
2022/06/23 06:00:43;;;;;;;12.75;4.47;;;;;;;;;;5079346;28;20039;-66
2022/06/23 06:03:34;;;;;;;16.40;6.88;;;;;;;;;;5077478;28;20078;-65
2022/06/23 06:06:20;;;;;;;15.77;5.45;;;;;;;;;;5092837;28;20031;-65
2022/06/23 06:12:27;;;;;;;13.68;4.97;;;;;;;;;;5091417;28;20344;-70
2022/06/23 06:15:13;;;;;;;;;;;;;;;;;;5088773;28;20078;-68
2022/06/23 06:18:03;;;;;;;17.25;5.50;;;;;;;;;;5091504;28;19912;-65
2022/06/23 06:20:49;;;;;;;13.15;4.28;;;;;;;;;;5077709;28;20028;-68
2022/06/23 06:23:53;;;;;;;12.13;5.05;;;;;;;;;;5090948;28;20114;-66
2022/06/23 06:26:41;;;;;;;15.85;5.95;;;;;;;;;;5091585;28;20371;-68
2022/06/23 06:29:32;;;;;;;15.13;4.80;;;;;;;;;;5088160;28;20428;-68
2022/06/23 06:32:34;;;;;;;21.20;5.65;;;;;;;;;;5077054;28;20429;-73
2022/06/23 06:35:29;;;;;;;15.27;4.15;;;;;;;;;;5068173;28;20024;-70
2022/06/23 06:38:17;;;;;;;12.73;4.70;;;;;;;;;;5078471;28;20044;-71
2022/06/23 06:41:02;;;;;;;13.05;4.53;;;;;;;;;;5091705;28;20043;-71
2022/06/23 06:43:48;;;;;;;12.45;4.35;;;;;;;;;;5091331;28;20028;-67
2022/06/23 06:46:34;;;;;;;14.25;5.22;;;;;;;;;;5086772;28;20017;-70
2022/06/23 06:49:21;;;;;;;8.45;3.92;;;;;;;;;;5090795;28;20089;-66
2022/06/23 06:52:08;;;;;;;14.27;4.55;;;;;;;;;;5077585;28;20035;-71
2022/06/23 06:54:59;;;;;;;10.98;3.83;;;;;;;;;;5090424;28;20031;-71
2022/06/23 06:57:53;;;;;;;12.70;3.90;;;;;;;;;;5092003;28;20020;-70
2022/06/23 07:00:49;;;;;;;13.68;3.95;;;;;;;;;;5090612;28;20435;-72
2022/06/23 07:03:35;;;;;;;13.13;4.32;;;;;;;;;;5090250;28;20028;-71
2022/06/23 07:06:27;;;;;;;12.32;3.65;;;;;;;;;;5090559;28;20028;-72
2022/06/23 07:09:31;;;;;;;10.02;3.90;;;;;;;;;;5071549;28;20054;-71
2022/06/23 07:12:23;;;;;;;11.80;3.50;;;;;;;;;;5089421;28;20032;-66
2022/06/23 07:15:23;;;;;;;12.75;3.90;;;;;;;;;;5090865;28;20424;-64
2022/06/23 07:18:09;;;;;;;14.30;4.38;;;;;;;;;;5088369;28;20040;-63
2022/06/23 07:20:57;;;;;;;16.35;3.85;;;;;;;;;;5087059;28;20032;-62
2022/06/23 07:24:03;;;;;;;10.10;3.88;;;;;;;;;;5089871;28;20024;-62
2022/06/23 07:26:51;;;;;;;15.57;4.93;;;;;;;;;;5081683;28;20040;-68
2022/06/23 07:29:37;;;;;;;11.93;4.35;;;;;;;;;;5070053;28;20470;-68
2022/06/23 07:32:32;;;;;;;12.45;4.57;;;;;;;;;;5090725;28;20050;-69
2022/06/23 07:35:36;;;;;;;10.23;3.78;;;;;;;;;;5081728;28;20080;-70
2022/06/23 07:38:40;;;;;;;17.10;4.47;;;;;;;;;;5071844;28;20059;-70
2022/06/23 07:41:35;;;;;;;13.98;4.90;;;;;;;;;;5089512;28;20408;-70
2022/06/23 07:44:34;;;;;;;13.02;4.10;;;;;;;;;;5090920;28;20032;-70
2022/06/23 07:47:20;;;;;;;11.75;3.97;;;;;;;;;;5088859;28;20035;-61
2022/06/23 07:50:05;;;;;;;19.40;4.35;;;;;;;;;;5074134;28;20032;-61
2022/06/23 07:52:52;;;;;;;15.15;4.57;;;;;;;;;;5088368;28;20040;-62
2022/06/23 07:55:40;;;;;;;10.85;4.28;;;;;;;;;;5088816;28;20032;-62
2022/06/23 07:58:30;;;;;;;10.80;3.85;;;;;;;;;;5089420;28;20032;-62
2022/06/23 08:01:18;;;;;;;16.02;4.22;;;;;;;;;;5088784;28;20047;-62
2022/06/23 08:04:07;;;;;;;9.90;3.78;;;;;;;;;;5087070;28;20032;-66
2022/06/23 08:06:55;;;;;;;11.27;4.45;;;;;;;;;;5090072;28;20046;-71
2022/06/23 08:09:48;;;;;;;9.07;3.05;;;;;;;;;;5088415;28;20089;-71
2022/06/23 08:12:53;;;;;;;10.13;3.75;;;;;;;;;;5080469;28;20356;-73
2022/06/23 08:18:51;;;;;;;12.70;4.07;;;;;;;;;;5090680;28;20024;-71
2022/06/23 08:21:41;;;;;;;9.88;3.15;;;;;;;;;;5089562;28;20069;-62
2022/06/23 08:24:27;;;;;;;8.48;3.03;;;;;;;;;;5092551;28;20034;-64
2022/06/23 08:27:14;;;;;;;6.80;3.17;;;;;;;;;;5076305;28;20466;-64
2022/06/23 08:30:03;;;;;;;7.88;2.90;;;;;;;;;;5084367;28;20020;-63
2022/06/23 08:32:50;;;;;;;9.82;2.90;;;;;;;;;;5063542;28;20425;-64
2022/06/23 08:35:37;;;;;;;11.63;3.55;;;;;;;;;;5094809;28;20443;-66
2022/06/23 08:38:29;;;;;;;10.35;3.72;;;;;;;;;;5085681;28;20043;-64
2022/06/23 08:41:27;;;;;;;9.43;2.95;;;;;;;;;;5092399;28;20024;-62
2022/06/23 08:44:31;;;;;;;6.35;2.88;;;;;;;;;;5079523;28;20039;-73
2022/06/23 08:47:28;;;;;;;12.07;3.92;;;;;;;;;;5082716;28;20036;-72
2022/06/23 08:50:18;;;;;;;10.73;4.28;;;;;;;;;;5091004;28;20386;-72
2022/06/23 08:53:39;;;;;;;7.30;2.80;;;;;;;;;;5079931;28;20102;-70
2022/06/23 08:56:28;;;;;;;8.40;2.90;;;;;;;;;;4972553;28;20065;-70
2022/06/23 08:59:13;;;;;;;;;;;;;;;;;;5092077;28;20047;-67
2022/06/23 09:02:13;;;;;;;14.48;3.75;;;;;;;;;;5063071;28;19994;-69
2022/06/23 09:05:20;;;;;;;10.40;3.40;;;;;;;;;;5090972;28;20119;-67
2022/06/23 09:08:08;;;;;;;9.82;3.20;;;;;;;;;;5077105;28;20024;-68
2022/06/23 09:10:57;;;;;;;13.05;3.90;;;;;;;;;;5085323;28;20081;-67
2022/06/23 09:13:57;;;;;;;7.68;2.88;;;;;;;;;;5084425;28;20108;-67
2022/06/23 09:16:43;;;;;;;11.30;3.42;;;;;;;;;;5089220;28;20551;-67
2022/06/23 09:19:28;;;;;;;11.13;3.05;;;;;;;;;;5091093;28;20485;-66
2022/06/23 09:22:20;;;;;;;9.50;3.28;;;;;;;;;;5092509;28;20082;-66
2022/06/23 09:25:15;;;;;;;7.50;3.13;;;;;;;;;;5088430;28;20024;-66
2022/06/23 09:28:20;;;;;;;10.98;3.65;;;;;;;;;;5075941;28;20024;-66
2022/06/23 09:31:17;;;;;;;8.68;2.60;;;;;;;;;;5075709;28;20119;-67
2022/06/23 09:34:22;;;;;;;7.25;2.75;;;;;;;;;;5078167;28;20122;-66
2022/06/23 09:37:21;;;;;;;8.70;2.70;;;;;;;;;;5073942;28;20050;-65
2022/06/23 09:40:09;;;;;;;12.60;3.58;;;;;;;;;;5074424;28;20036;-60
2022/06/23 09:42:55;;;;;;;11.48;3.33;;;;;;;;;;5065808;28;20024;-59
2022/06/23 09:45:50;;;;;;;12.50;3.88;;;;;;;;;;5090690;28;20025;-59
2022/06/23 09:48:47;;;;;;;9.70;3.97;;;;;;;;;;5085302;28;20039;-60
2022/06/23 09:51:50;;;;;;;12.50;3.58;;;;;;;;;;5074514;28;20440;-61
2022/06/23 09:54:36;;;;;;;13.65;3.88;;;;;;;;;;5083408;28;20066;-67
2022/06/23 09:57:33;;;;;;;5.75;3.20;;;;;;;;;;5077960;28;20632;-61
2022/06/23 10:00:33;;;;;;;11.70;3.25;;;;;;;;;;5078385;28;20035;-60
2022/06/23 10:03:42;;;;;;;13.20;3.58;;;;;;;;;;5088862;28;20031;-61
2022/06/23 10:06:46;;;;;;;11.18;3.42;;;;;;;;;;5092064;28;20051;-63
2022/06/23 10:09:51;;;;;;;11.20;3.65;;;;;;;;;;5092310;28;20020;-65
2022/06/23 10:12:47;;;;;;;10.57;3.33;;;;;;;;;;5090431;28;20039;-71
2022/06/23 10:15:38;;;;;;;8.18;2.80;;;;;;;;;;5092373;28;20027;-68
2022/06/23 10:18:47;;;;;;;10.43;3.40;;;;;;;;;;5076112;28;20119;-67
2022/06/23 10:21:35;;;;;;;8.90;3.63;;;;;;;;;;5085965;28;20394;-69
2022/06/23 10:24:36;;;;;;;11.85;3.85;;;;;;;;;;5083799;28;20039;-67
2022/06/23 10:27:44;;;;;;;7.63;3.00;;;;;;;;;;5090210;28;20055;-69
2022/06/23 10:30:29;;;;;;;11.00;3.90;;;;;;;;;;5085496;28;20028;-70
2022/06/23 10:33:22;;;;;;;8.90;4.00;;;;;;;;;;5083695;28;20036;-64
2022/06/23 10:36:27;;;;;;;9.18;3.65;;;;;;;;;;5091450;28;20016;-64
2022/06/23 10:39:24;;;;;;;9.57;3.60;;;;;;;;;;5090597;28;20039;-64
2022/06/23 10:42:17;;;;;;;9.35;3.33;;;;;;;;;;5090167;28;20442;-64
2022/06/23 10:45:22;;;;;;;10.35;4.03;;;;;;;;;;5091288;28;20028;-64
2022/06/23 10:48:26;;;;;;;8.00;2.63;;;;;;;;;;5091239;28;20479;-64
2022/06/23 10:51:27;;;;;;;7.63;3.05;;;;;;;;;;5091328;28;20036;-69
2022/06/23 10:54:19;;;;;;;7.72;3.40;;;;;;;;;;5081625;28;20084;-70
2022/06/23 10:57:14;;;;;;;9.57;3.35;;;;;;;;;;5081796;28;20039;-71
2022/06/23 11:00:06;;;;;;;9.73;2.88;;;;;;;;;;5089204;28;20051;-70
2022/06/23 11:03:30;;;;;;;9.52;3.55;;;;;;;;;;5073893;28;20036;-70
2022/06/23 11:06:29;;;;;;;10.95;3.33;;;;;;;;;;5029247;28;20399;-64
2022/06/23 11:09:37;;;;;;;6.60;3.08;;;;;;;;;;5028397;28;20036;-68
2022/06/23 11:12:36;;;;;;;8.00;2.75;;;;;;;;;;5088196;28;20071;-66
2022/06/23 11:15:26;;;;;;;12.38;3.05;;;;;;;;;;5084783;28;20032;-65
2022/06/23 11:18:14;;;;;;;7.97;2.90;;;;;;;;;;5085195;28;20036;-67
2022/06/23 11:21:09;;;;;;;8.18;2.40;;;;;;;;;;5087937;28;20092;-66
2022/06/23 11:24:00;;;;;;;14.90;2.80;;;;;;;;;;5072708;28;20047;-67
2022/06/23 11:26:46;;;;;;;8.25;2.35;;;;;;;;;;5088305;28;20099;-63
2022/06/23 11:29:47;;;;;;;7.07;2.70;;;;;;;;;;5072883;28;20031;-70
2022/06/23 11:32:39;;;;;;;10.68;2.70;;;;;;;;;;5090541;28;20107;-72
2022/06/23 11:35:24;;;;;;;6.55;2.45;;;;;;;;;;5066592;28;20051;-70
2022/06/23 11:38:16;;;;;;;9.10;2.95;;;;;;;;;;5068371;28;20047;-71
2022/06/23 11:41:20;;;;;;;9.43;2.83;;;;;;;;;;5089365;28;20024;-72
2022/06/23 11:44:25;;;;;;;10.50;3.08;;;;;;;;;;5090766;28;20073;-70
2022/06/23 11:47:10;;;;;;;8.35;2.78;;;;;;;;;;5091641;28;20036;-60
2022/06/23 11:50:05;;;;;;;6.35;2.70;;;;;;;;;;5089989;28;20062;-61
2022/06/23 11:53:00;;;;;;;7.32;2.58;;;;;;;;;;5073640;28;20020;-60
2022/06/23 11:56:11;;;;;;;8.25;2.90;;;;;;;;;;5082836;28;20534;-62
2022/06/23 11:59:03;;;;;;;9.43;2.75;;;;;;;;;;5076136;28;20051;-60
2022/06/23 12:01:49;;;;;;;9.73;2.78;;;;;;;;;;5094055;28;20077;-70
2022/06/23 12:04:53;;;;;;;9.60;3.28;;;;;;;;;;5087552;28;20172;-69
2022/06/23 12:07:59;;;;;;;10.90;3.58;;;;;;;;;;5089203;28;20107;-63
2022/06/23 12:10:44;;;;;;;12.07;3.20;;;;;;;;;;5090934;28;20032;-66
2022/06/23 12:13:31;;;;;;;10.80;3.08;;;;;;;;;;5089835;28;20027;-63
2022/06/23 12:16:17;;;;;;;10.07;2.97;;;;;;;;;;5071079;28;20550;-64
2022/06/23 12:19:05;;;;;;;8.25;2.65;;;;;;;;;;5076695;28;20032;-63
2022/06/23 12:21:57;;;;;;;14.63;3.57;;;;;;;;;;5093383;28;20044;-66
2022/06/23 12:25:01;;;;;;;8.48;3.00;;;;;;;;;;5091570;28;20035;-66
2022/06/23 12:27:47;;;;;;;10.30;2.70;;;;;;;;;;5089492;28;20419;-66
2022/06/23 12:30:35;;;;;;;9.20;3.53;;;;;;;;;;5076958;28;20085;-65
2022/06/23 12:33:27;;;;;;;9.48;2.88;;;;;;;;;;5074577;28;20046;-68
2022/06/23 12:36:18;;;;;;;7.97;3.70;;;;;;;;;;5085320;28;20111;-66
2022/06/23 12:39:07;;;;;;;10.88;3.40;;;;;;;;;;5080480;28;20493;-62
2022/06/23 12:41:52;;;;;;;;;;;;;;;;;;5093805;28;20032;-64
2022/06/23 12:44:38;;;;;;;7.53;2.90;;;;;;;;;;5069856;28;20414;-63
2022/06/23 12:47:26;;;;;;;7.50;2.70;;;;;;;;;;5091772;28;20035;-63
2022/06/23 12:50:27;;;;;;;7.53;2.63;;;;;;;;;;5091062;28;20478;-64
2022/06/23 12:53:37;;;;;;;10.13;2.75;;;;;;;;;;5091494;28;20254;-63
2022/06/23 12:56:38;;;;;;;8.73;2.75;;;;;;;;;;5091543;28;20032;-65
2022/06/23 12:59:23;;;;;;;8.75;3.13;;;;;;;;;;5090673;28;20315;-68
2022/06/23 13:02:27;;;;;;;7.38;2.35;;;;;;;;;;5090908;28;20028;-61
2022/06/23 13:05:29;;;;;;;13.70;3.10;;;;;;;;;;5094450;28;20456;-61
2022/06/23 13:08:25;;;;;;;9.50;2.65;;;;;;;;;;5092281;28;20032;-62
2022/06/23 13:11:14;;;;;;;8.13;2.70;;;;;;;;;;5090571;28;20043;-61
2022/06/23 13:13:59;;;;;;;;;;;;;;;;;;5091601;28;20052;-61
2022/06/23 13:16:50;;;;;;;8.48;2.88;;;;;;;;;;5085604;28;19958;-69
2022/06/23 13:19:39;;;;;;;13.73;3.15;;;;;;;;;;5090720;28;20028;-66
2022/06/23 13:22:25;;;;;;;6.85;2.67;;;;;;;;;;5090139;28;20054;-65
2022/06/23 13:25:20;;;;;;;11.18;3.40;;;;;;;;;;5089201;28;20032;-66
2022/06/23 13:28:06;;;;;;;9.00;2.80;;;;;;;;;;5088013;28;20077;-67
2022/06/23 13:30:54;;;;;;;12.25;3.72;;;;;;;;;;5082144;28;20036;-66
2022/06/23 13:34:12;;;;;;;12.48;3.65;;;;;;;;;;5078287;28;20032;-66
2022/06/23 13:36:57;;;;;;;8.55;2.50;;;;;;;;;;5030215;28;20035;-63
2022/06/23 13:39:46;;;;;;;12.75;3.17;;;;;;;;;;5090906;28;20020;-63
2022/06/23 13:42:32;;;;;;;;;;;;;;;;;;5090266;28;20028;-63
2022/06/23 13:45:33;;;;;;;8.38;2.35;;;;;;;;;;5091851;28;19970;-65
2022/06/23 13:48:19;;;;;;;8.10;3.58;;;;;;;;;;5092380;28;20082;-63
2022/06/23 13:51:05;;;;;;;11.20;2.80;;;;;;;;;;5092261;28;20291;-64
2022/06/23 13:54:29;;;;;;;9.00;3.08;;;;;;;;;;5084225;28;20055;-71
2022/06/23 13:57:19;;;;;;;13.13;3.42;;;;;;;;;;4991486;28;20027;-65
2022/06/23 14:00:16;;;;;;;8.45;2.45;;;;;;;;;;4988399;28;20070;-66
2022/06/23 14:03:22;;;;;;;10.05;3.13;;;;;;;;;;4987997;28;20137;-66
2022/06/23 14:06:30;;;;;;;9.80;3.08;;;;;;;;;;4984857;28;20035;-64
2022/06/23 14:09:21;;;;;;;16.15;4.03;;;;;;;;;;4972914;28;20046;-68
2022/06/23 14:12:07;;;;;;;7.60;2.55;;;;;;;;;;4991923;28;20037;-66
2022/06/23 14:15:12;;;;;;;10.60;3.08;;;;;;;;;;4991695;28;20042;-64
2022/06/23 14:17:59;;;;;;;13.02;3.13;;;;;;;;;;4968901;28;20522;-64
2022/06/23 14:20:51;;;;;;;9.07;3.20;;;;;;;;;;4965496;28;20426;-63
2022/06/23 14:23:49;;;;;;;8.70;2.88;;;;;;;;;;4987343;28;20045;-63
2022/06/23 14:26:41;;;;;;;8.35;2.67;;;;;;;;;;4994372;28;20092;-65
2022/06/23 14:29:46;;;;;;;8.43;3.13;;;;;;;;;;5086815;28;20096;-73
2022/06/23 14:32:54;;;;;;;12.20;2.78;;;;;;;;;;5087462;28;20020;-66
2022/06/23 14:35:48;;;;;;;13.52;2.97;;;;;;;;;;5090706;28;20028;-66
2022/06/23 14:38:52;;;;;;;9.95;3.10;;;;;;;;;;5078210;28;20032;-62
2022/06/23 14:41:47;;;;;;;9.13;3.10;;;;;;;;;;5089652;28;20085;-62
2022/06/23 14:44:32;;;;;;;7.85;3.17;;;;;;;;;;5093165;28;20036;-65
2022/06/23 14:47:21;;;;;;;9.00;3.45;;;;;;;;;;5090707;28;20427;-66
2022/06/23 14:50:25;;;;;;;10.43;3.25;;;;;;;;;;5089636;28;20027;-68
2022/06/23 14:53:11;;;;;;;12.38;3.70;;;;;;;;;;5076080;28;20074;-66
2022/06/23 14:56:12;;;;;;;8.77;2.70;;;;;;;;;;5088969;28;20116;-66
2022/06/23 14:59:04;;;;;;;9.65;3.03;;;;;;;;;;5081663;28;20054;-66
2022/06/23 15:02:01;;;;;;;9.05;3.15;;;;;;;;;;5087853;28;20055;-65
2022/06/23 15:04:49;;;;;;;8.15;3.03;;;;;;;;;;5069835;28;20049;-66
2022/06/23 15:07:54;;;;;;;10.77;3.63;;;;;;;;;;5088868;28;20127;-66
2022/06/23 15:10:45;;;;;;;12.52;4.10;;;;;;;;;;5079089;28;20024;-65
2022/06/23 15:13:31;;;;;;;19.80;3.80;;;;;;;;;;5091673;28;20035;-65
2022/06/23 15:16:25;;;;;;;8.13;3.05;;;;;;;;;;5082064;28;20031;-66
2022/06/23 15:19:18;;;;;;;9.52;3.13;;;;;;;;;;5086276;28;20042;-65
2022/06/23 15:25:28;;;;;;;9.05;3.63;;;;;;;;;;5088288;28;20043;-68
2022/06/23 15:28:26;;;;;;;11.32;3.05;;;;;;;;;;5091029;28;20032;-62
2022/06/23 15:31:21;;;;;;;8.88;3.88;;;;;;;;;;5076792;28;20034;-63
2022/06/23 15:34:10;;;;;;;10.60;4.68;;;;;;;;;;5090421;28;20099;-64
2022/06/23 15:37:18;;;;;;;12.05;4.40;;;;;;;;;;5089401;28;20027;-62
2022/06/23 15:40:22;;;;;;;11.13;3.38;;;;;;;;;;5090140;28;20157;-62
2022/06/23 15:43:16;;;;;;;9.63;4.78;;;;;;;;;;5089943;28;20028;-60
2022/06/23 15:46:07;;;;;;;13.70;3.78;;;;;;;;;;5087743;28;20073;-65
2022/06/23 15:48:57;;;;;;;11.63;4.18;;;;;;;;;;5076354;28;20047;-67
2022/06/23 15:51:47;;;;;;;11.50;3.70;;;;;;;;;;5091032;28;20032;-64
2022/06/23 15:54:35;;;;;;;9.77;3.88;;;;;;;;;;5084266;28;20090;-65
2022/06/23 15:57:25;;;;;;;10.77;3.72;;;;;;;;;;5089650;28;20039;-66
2022/06/23 16:00:13;;;;;;;14.00;4.40;;;;;;;;;;5090554;28;20040;-65
2022/06/23 16:03:24;;;;;;;11.65;3.53;;;;;;;;;;5087759;28;20027;-68
2022/06/23 16:06:10;;;;;;;10.98;4.10;;;;;;;;;;5089962;28;20477;-65
2022/06/23 16:09:05;;;;;;;13.23;4.20;;;;;;;;;;5088414;28;20031;-66
2022/06/23 16:11:55;;;;;;;9.90;3.50;;;;;;;;;;5090137;28;20051;-69
2022/06/23 16:14:41;;;;;;;10.45;3.67;;;;;;;;;;5090061;28;20432;-67
2022/06/23 16:17:29;;;;;;;15.13;4.10;;;;;;;;;;5091141;28;20031;-66
2022/06/23 16:20:17;;;;;;;9.27;3.00;;;;;;;;;;5085254;28;20031;-65
2022/06/23 16:23:26;;;;;;;12.38;3.83;;;;;;;;;;5090273;28;20085;-65
2022/06/23 16:26:17;;;;;;;9.80;3.17;;;;;;;;;;5088551;28;20039;-67
2022/06/23 16:29:07;;;;;;;9.45;3.53;;;;;;;;;;5089564;28;20119;-66
2022/06/23 16:32:00;;;;;;;9.98;3.60;;;;;;;;;;5056535;28;20108;-65
2022/06/23 16:34:52;;;;;;;10.00;3.50;;;;;;;;;;5076908;28;20020;-65
2022/06/23 16:37:44;;;;;;;10.02;4.30;;;;;;;;;;5089337;28;20016;-61
2022/06/23 16:40:39;;;;;;;12.00;3.45;;;;;;;;;;5083091;28;20024;-62
2022/06/23 16:43:36;;;;;;;10.63;3.58;;;;;;;;;;5090992;28;20028;-72
2022/06/23 16:46:46;;;;;;;16.35;4.95;;;;;;;;;;5092163;28;20513;-71
2022/06/23 16:49:32;;;;;;;8.25;3.33;;;;;;;;;;5088022;28;20031;-69
2022/06/23 16:52:24;;;;;;;9.23;3.42;;;;;;;;;;5092490;28;20056;-72
2022/06/23 16:55:16;;;;;;;11.82;4.35;;;;;;;;;;5081679;28;20445;-72
2022/06/23 16:58:10;;;;;;;10.93;6.03;;;;;;;;;;5079045;28;20563;-71
2022/06/23 17:01:10;;;;;;;11.77;3.90;;;;;;;;;;5086499;28;20031;-67
2022/06/23 17:03:55;;;;;;;12.35;3.75;;;;;;;;;;5090198;28;20390;-66
2022/06/23 17:06:49;;;;;;;8.20;3.15;;;;;;;;;;5067984;28;20032;-71
2022/06/23 17:09:47;;;;;;;9.55;4.03;;;;;;;;;;5086831;28;20028;-68
2022/06/23 17:12:38;;;;;;;10.30;4.15;;;;;;;;;;5066340;28;20021;-70
2022/06/23 17:15:26;;;;;;;8.10;4.05;;;;;;;;;;5090749;28;20038;-71
2022/06/23 17:18:19;;;;;;;13.60;4.00;;;;;;;;;;5092522;28;20078;-65
2022/06/23 17:21:08;;;;;;;14.18;3.90;;;;;;;;;;5082204;28;20830;-66
2022/06/23 17:23:55;;;;;;;7.82;3.08;;;;;;;;;;5081396;28;20020;-65